地図

経路データ

SID SEASON NUMBER BASIN SUBBASIN NAME ISO_TIME NATURE LAT LON WMO_WIND WMO_PRES WMO_AGENCY TRACK_TYPE DIST2LAND LANDFALL IFLAG USA_AGENCY USA_ATCF_ID USA_LAT USA_LON USA_RECORD USA_STATUS USA_WIND USA_PRES USA_SSHS USA_R34_NE USA_R34_SE USA_R34_SW USA_R34_NW USA_R50_NE USA_R50_SE USA_R50_SW USA_R50_NW USA_R64_NE USA_R64_SE USA_R64_SW USA_R64_NW USA_POCI USA_ROCI USA_RMW USA_EYE TOKYO_LAT TOKYO_LON TOKYO_GRADE TOKYO_WIND TOKYO_PRES TOKYO_R50_DIR TOKYO_R50_LONG TOKYO_R50_SHORT TOKYO_R30_DIR TOKYO_R30_LONG TOKYO_R30_SHORT TOKYO_LAND CMA_LAT CMA_LON CMA_CAT CMA_WIND CMA_PRES HKO_LAT HKO_LON HKO_CAT HKO_WIND HKO_PRES NEWDELHI_LAT NEWDELHI_LON NEWDELHI_GRADE NEWDELHI_WIND NEWDELHI_PRES NEWDELHI_CI NEWDELHI_DP NEWDELHI_POCI REUNION_LAT REUNION_LON REUNION_TYPE REUNION_WIND REUNION_PRES REUNION_TNUM REUNION_CI REUNION_RMW REUNION_R34_NE REUNION_R34_SE REUNION_R34_SW REUNION_R34_NW REUNION_R50_NE REUNION_R50_SE REUNION_R50_SW REUNION_R50_NW REUNION_R64_NE REUNION_R64_SE REUNION_R64_SW REUNION_R64_NW BOM_LAT BOM_LON BOM_TYPE BOM_WIND BOM_PRES BOM_TNUM BOM_CI BOM_RMW BOM_R34_NE BOM_R34_SE BOM_R34_SW BOM_R34_NW BOM_R50_NE BOM_R50_SE BOM_R50_SW BOM_R50_NW BOM_R64_NE BOM_R64_SE BOM_R64_SW BOM_R64_NW BOM_ROCI BOM_POCI BOM_EYE BOM_POS_METHOD BOM_PRES_METHOD NADI_LAT NADI_LON NADI_CAT NADI_WIND NADI_PRES WELLINGTON_LAT WELLINGTON_LON WELLINGTON_WIND WELLINGTON_PRES DS824_LAT DS824_LON DS824_STAGE DS824_WIND DS824_PRES TD9636_LAT TD9636_LON TD9636_STAGE TD9636_WIND TD9636_PRES TD9635_LAT TD9635_LON TD9635_WIND TD9635_PRES TD9635_ROCI NEUMANN_LAT NEUMANN_LON NEUMANN_CLASS NEUMANN_WIND NEUMANN_PRES MLC_LAT MLC_LON MLC_CLASS MLC_WIND MLC_PRES USA_GUST BOM_GUST BOM_GUST_PER REUNION_GUST REUNION_GUST_PER USA_SEAHGT USA_SEARAD_NE USA_SEARAD_SE USA_SEARAD_SW USA_SEARAD_NW STORM_SPEED STORM_DIR
1877257N22268 1877 27 NA GM NOT_NAMED 1877-09-14 00:00:00 TS 21.5000 -92.0000 40 hurdat_atl main 181 181 O____________O hurdat_atl AL021877 21.5000 -92.0000 TS 40 0 21.5000 -92.0000 TS 35 6 323
1877257N22268 1877 27 NA GM NOT_NAMED 1877-09-14 03:00:00 TS 21.7200 -92.1798 main 207 207 P____________P AL021877 21.7200 -92.1798 TS 40 0 21.7200 -92.1798 TS 37 5 317
1877257N22268 1877 27 NA GM NOT_NAMED 1877-09-14 06:00:00 TS 21.9000 -92.4000 40 hurdat_atl main 234 234 O____________O hurdat_atl AL021877 21.9000 -92.4000 TS 40 0 21.9000 -92.4000 TS 40 6 303
1877257N22268 1877 27 NA GM NOT_NAMED 1877-09-14 09:00:00 TS 22.0275 -92.6853 main 267 267 P____________P AL021877 22.0275 -92.6853 TS 40 0 22.0275 -92.6853 TS 42 6 298
1877257N22268 1877 27 NA GM NOT_NAMED 1877-09-14 12:00:00 TS 22.2000 -93.0000 40 hurdat_atl main 304 304 O____________O hurdat_atl AL021877 22.2000 -93.0000 TS 40 0 22.2000 -93.0000 TS 45 8 311
1877257N22268 1877 27 NA GM NOT_NAMED 1877-09-14 15:00:00 TS 22.5275 -93.3074 main 346 346 P____________P AL021877 22.5275 -93.3074 TS 40 0 22.5275 -93.3074 TS 47 9 322
1877257N22268 1877 27 NA GM NOT_NAMED 1877-09-14 18:00:00 TS 22.9000 -93.6000 40 hurdat_atl main 395 395 O____________O hurdat_atl AL021877 22.9000 -93.6000 TS 40 0 22.9000 -93.6000 TS 50 9 323
1877257N22268 1877 27 NA GM NOT_NAMED 1877-09-14 21:00:00 TS 23.2074 -93.8577 main 392 377 P____________P AL021877 23.2074 -93.8577 TS 45 0 23.2074 -93.8577 TS 52 8 323
1877257N22268 1877 27 NA GM NOT_NAMED 1877-09-15 00:00:00 TS 23.5000 -94.1000 50 hurdat_atl main 377 350 O____________O hurdat_atl AL021877 23.5000 -94.1000 TS 50 0 23.5000 -94.1000 TS 55 8 322
1877257N22268 1877 27 NA GM NOT_NAMED 1877-09-15 03:00:00 TS 23.8000 -94.3576 main 341 308 P____________P AL021877 23.8000 -94.3576 TS 50 0 23.8000 -94.3576 TS 57 8 323
1877257N22268 1877 27 NA GM NOT_NAMED 1877-09-15 06:00:00 TS 24.1000 -94.6000 50 hurdat_atl main 308 275 O____________O hurdat_atl AL021877 24.1000 -94.6000 TS 50 0 24.1000 -94.6000 TS 60 7 325
1877257N22268 1877 27 NA GM NOT_NAMED 1877-09-15 09:00:00 TS 24.4075 -94.8300 main 275 243 P____________P AL021877 24.4075 -94.8300 TS 50 0 24.4075 -94.8300 TS 60 7 329
1877257N22268 1877 27 NA GM NOT_NAMED 1877-09-15 12:00:00 TS 24.7000 -95.0000 50 hurdat_atl main 243 225 O____________O hurdat_atl AL021877 24.7000 -95.0000 TS 50 0 24.7000 -95.0000 TS 60 6 339
1877257N22268 1877 27 NA GM NOT_NAMED 1877-09-15 15:00:00 TS 24.9574 -95.0652 main 221 215 P____________P AL021877 24.9424 -95.0653 TS 50 0 24.9874 -95.0652 TS 62 5 350
1877257N22268 1877 27 NA GM NOT_NAMED 1877-09-15 18:00:00 TS 25.2000 -95.1000 50 hurdat_atl main 215 201 O____________O hurdat_atl AL021877 25.2000 -95.1000 TS 50 0 25.2000 -95.1000 HU 65 5 344
1877257N22268 1877 27 NA GM NOT_NAMED 1877-09-15 21:00:00 TS 25.4350 -95.2074 main 201 183 P____________P AL021877 25.5500 -95.2073 TS 55 0 25.2050 -95.2076 HU 65 5 340
1877257N22268 1877 27 NA GM NOT_NAMED 1877-09-16 00:00:00 TS 25.7000 -95.3000 60 hurdat_atl main 183 179 O____________O hurdat_atl AL021877 25.9000 -95.3000 TS 60 0 25.3000 -95.3000 HU 65 6 351
1877257N22268 1877 27 NA GM NOT_NAMED 1877-09-16 03:00:00 TS 26.0425 -95.3151 main 179 179 P____________P AL021877 26.1575 -95.3151 TS 60 0 25.8125 -95.3151 HU 65 7 0
1877257N22268 1877 27 NA GM NOT_NAMED 1877-09-16 06:00:00 TS 26.4000 -95.3000 60 hurdat_atl main 184 184 O____________O hurdat_atl AL021877 26.4000 -95.3000 TS 60 0 26.4000 -95.3000 HU 65 7 0
1877257N22268 1877 27 NA GM NOT_NAMED 1877-09-16 09:00:00 TS 26.7225 -95.3149 main 195 189 P____________P AL021877 26.7075 -95.3149 TS 60 0 26.7525 -95.3149 HU 65 6 1
1877257N22268 1877 27 NA GM NOT_NAMED 1877-09-16 12:00:00 TS 27.0000 -95.3000 60 hurdat_atl main 189 174 O____________O hurdat_atl AL021877 27.0000 -95.3000 TS 60 0 27.0000 -95.3000 HU 65 5 12
1877257N22268 1877 27 NA GM NOT_NAMED 1877-09-16 15:00:00 TS 27.2150 -95.2001 main 174 160 P____________P AL021877 27.2150 -95.2001 TS 60 0 27.2150 -95.2001 HU 65 4 24
1877257N22268 1877 27 NA GM NOT_NAMED 1877-09-16 18:00:00 TS 27.4000 -95.1000 60 hurdat_atl main 160 142 O____________O hurdat_atl AL021877 27.4000 -95.1000 TS 60 0 27.4000 -95.1000 HU 65 4 12
1877257N22268 1877 27 NA GM NOT_NAMED 1877-09-16 21:00:00 TS 27.6000 -95.1073 main 142 125 P____________P AL021877 27.6000 -95.1073 TS 65 1 27.6000 -95.1073 HU 65 4 0
1877257N22268 1877 27 NA GM NOT_NAMED 1877-09-17 00:00:00 TS 27.8000 -95.1000 70 hurdat_atl main 125 107 O____________O hurdat_atl AL021877 27.8000 -95.1000 HU 70 1 27.8000 -95.1000 HU 65 4 16
1877257N22268 1877 27 NA GM NOT_NAMED 1877-09-17 03:00:00 TS 28.0075 -94.9726 main 107 97 P____________P AL021877 28.0075 -94.9726 HU 70 1 28.0075 -94.9726 HU 65 5 34
1877257N22268 1877 27 NA GM NOT_NAMED 1877-09-17 06:00:00 TS 28.2000 -94.8000 70 hurdat_atl main 97 82 O____________O hurdat_atl AL021877 28.2000 -94.8000 HU 70 1 28.2000 -94.8000 HU 65 4 36
1877257N22268 1877 27 NA GM NOT_NAMED 1877-09-17 09:00:00 TS 28.3648 -94.6799 main 82 80 P____________P AL021877 28.3648 -94.6799 HU 70 1 28.3648 -94.6799 HU 65 4 41
1877257N22268 1877 27 NA GM NOT_NAMED 1877-09-17 12:00:00 TS 28.5000 -94.5000 70 hurdat_atl main 88 88 O____________O hurdat_atl AL021877 28.5000 -94.5000 HU 70 1 28.5000 -94.5000 HU 65 5 61
1877257N22268 1877 27 NA GM NOT_NAMED 1877-09-17 15:00:00 TS 28.6152 -94.1651 main 103 103 P____________P AL021877 28.6152 -94.1651 HU 70 1 28.6152 -94.1651 HU 65 6 72
1877257N22268 1877 27 NA GM NOT_NAMED 1877-09-17 18:00:00 TS 28.7000 -93.8000 70 hurdat_atl main 111 102 O____________O hurdat_atl AL021877 28.7000 -93.8000 HU 70 1 28.7000 -93.8000 HU 65 6 75
1877257N22268 1877 27 NA GM NOT_NAMED 1877-09-17 21:00:00 TS 28.7572 -93.5574 main 102 102 P____________P AL021877 28.7572 -93.5574 HU 70 1 28.7572 -93.5574 HU 65 4 77
1877257N22268 1877 27 NA GM NOT_NAMED 1877-09-18 00:00:00 TS 28.8000 -93.3000 70 hurdat_atl main 107 97 O____________O hurdat_atl AL021877 28.8000 -93.3000 HU 70 1 28.8000 -93.3000 HU 65 6 80
1877257N22268 1877 27 NA GM NOT_NAMED 1877-09-18 03:00:00 TS 28.8500 -92.9300 main 93 69 P____________P AL021877 28.8500 -92.9300 HU 70 1 28.8500 -92.9300 HU 65 7 82
1877257N22268 1877 27 NA GM NOT_NAMED 1877-09-18 06:00:00 TS 28.9000 -92.5000 70 hurdat_atl main 69 66 O____________O hurdat_atl AL021877 28.9000 -92.5000 HU 70 1 28.9000 -92.5000 HU 65 8 84
1877257N22268 1877 27 NA GM NOT_NAMED 1877-09-18 09:00:00 TS 28.9327 -92.0595 main 69 53 P____________P AL021877 28.9317 -92.0569 HU 70 1 28.9348 -92.0647 HU 65 8 83
1877257N22268 1877 27 NA GM NOT_NAMED 1877-09-18 12:00:00 TS 29.0000 -91.6000 70 hurdat_atl main 53 14 O____________O hurdat_atl AL021877 29.0000 -91.6000 HU 70 1 29.0000 -91.6000 HU 65 8 75
1877257N22268 1877 27 NA GM NOT_NAMED 1877-09-18 15:00:00 TS 29.1451 -91.1443 main 11 0 P____________P AL021877 29.1463 -91.1701 HU 70 1 29.1426 -91.0928 HU 65 9 70
1877257N22268 1877 27 NA GM NOT_NAMED 1877-09-18 16:00:00 TS 29.1990 -90.9744 70 hurdat_atl main 0 0 O____________P hurdat_atl AL021877 29.2000 -91.0000 L HU 70 1 29.1971 -90.9232 HU 65 10 72
1877257N22268 1877 27 NA NA NOT_NAMED 1877-09-18 18:00:00 TS 29.3000 -90.6000 70 hurdat_atl main 0 0 O____________O hurdat_atl AL021877 29.3000 -90.6000 HU 70 1 29.3000 -90.6000 HU 65 9 73
1877257N22268 1877 27 NA NA NOT_NAMED 1877-09-18 21:00:00 TS 29.4099 -90.1637 main 0 0 P____________P AL021877 29.4113 -90.1532 HU 70 1 29.4072 -90.1848 HU 65 7 74
1877257N22268 1877 27 NA NA NOT_NAMED 1877-09-19 00:00:00 TS 29.5000 -89.8000 70 hurdat_atl main 0 0 O____________O hurdat_atl AL021877 29.5000 -89.8000 HU 70 1 29.5000 -89.8000 HU 65 7 74
1877257N22268 1877 27 NA GM NOT_NAMED 1877-09-19 03:00:00 TS 29.5922 -89.4148 main 11 11 P____________P AL021877 29.5922 -89.4148 HU 70 1 29.5922 -89.4148 HU 65 7 74
1877257N22268 1877 27 NA GM NOT_NAMED 1877-09-19 06:00:00 TS 29.7000 -89.0000 70 hurdat_atl main 31 31 O____________O hurdat_atl AL021877 29.7000 -89.0000 HU 70 1 29.7000 -89.0000 HU 65 8 72
1877257N22268 1877 27 NA GM NOT_NAMED 1877-09-19 09:00:00 TS 29.8424 -88.5225 main 55 22 P____________P AL021877 29.8424 -88.5225 HU 70 1 29.8424 -88.5225 HU 65 9 71
1877257N22268 1877 27 NA GM NOT_NAMED 1877-09-19 12:00:00 TS 30.0000 -88.0000 70 hurdat_atl main 22 22 O____________O hurdat_atl AL021877 30.0000 -88.0000 HU 70 1 30.0000 -88.0000 HU 65 10 72
1877257N22268 1877 27 NA GM NOT_NAMED 1877-09-19 15:00:00 TS 30.1500 -87.4388 main 11 11 P____________P AL021877 30.1501 -87.4332 HU 70 1 30.1500 -87.4499 HU 65 10 72
1877257N22268 1877 27 NA GM NOT_NAMED 1877-09-19 18:00:00 TS 30.3000 -86.9000 70 hurdat_atl main 11 0 O____________O hurdat_atl AL021877 30.3000 -86.9000 HU 70 1 30.3000 -86.9000 HU 65 9 71
1877257N22268 1877 27 NA GM NOT_NAMED 1877-09-19 20:00:00 TS 30.4017 -86.5916 70 hurdat_atl main 0 0 O____________P hurdat_atl AL021877 30.4000 -86.6000 L HU 70 1 30.4050 -86.5749 HU 59 9 69
1877257N22268 1877 27 NA GM NOT_NAMED 1877-09-19 21:00:00 TS 30.4535 -86.4313 main 0 0 P____________P AL021877 30.4517 -86.4395 HU 67 1 30.4569 -86.4148 HU 57 9 72
1877257N22268 1877 27 NA NA NOT_NAMED 1877-09-20 00:00:00 TS 30.6000 -85.9000 60 hurdat_atl main 0 0 O____________O hurdat_atl AL021877 30.6000 -85.9000 TS 60 0 30.6000 -85.9000 TS 50 11 76
1877257N22268 1877 27 NA NA NOT_NAMED 1877-09-20 03:00:00 TS 30.7141 -85.2285 main 0 0 P____________P AL021877 30.7094 -85.2514 TS 55 0 30.7234 -85.1827 TS 45 11 80
1877257N22268 1877 27 NA NA NOT_NAMED 1877-09-20 06:00:00 TS 30.8000 -84.6000 50 hurdat_atl main 0 0 O____________O hurdat_atl AL021877 30.8000 -84.6000 TS 50 0 30.8000 -84.6000 TS 40 9 79
1877257N22268 1877 27 NA NA NOT_NAMED 1877-09-20 09:00:00 TS 30.8785 -84.2124 main 0 0 P____________P AL021877 30.9068 -84.0924 TS 45 0 30.8219 -84.4523 TS 35 6 77
1877257N22268 1877 27 NA NA NOT_NAMED 1877-09-20 12:00:00 TS 30.9333 -83.9000 40 hurdat_atl main 0 0 O____________O hurdat_atl AL021877 31.0000 -83.6000 TS 40 0 30.8000 -84.5000 TD 30 6 83
1877257N22268 1877 27 NA NA NOT_NAMED 1877-09-20 15:00:00 TS 30.9549 -83.5149 main 0 0 P____________P AL021877 31.0573 -83.0223 TS 40 0 30.7500 -84.5000 TD 30 7 87
1877257N22268 1877 27 NA NA NOT_NAMED 1877-09-20 18:00:00 TS 30.9667 -83.1000 40 hurdat_atl main 0 0 O____________O hurdat_atl AL021877 31.1000 -82.4000 TS 40 0 30.7000 -84.5000 TD 30 7 87
1877257N22268 1877 27 NA NA NOT_NAMED 1877-09-20 21:00:00 TS 30.9975 -82.6475 main 0 0 P____________P AL021877 31.1500 -81.7425 TS 40 0 30.6925 -84.4575 TD 25 9 84
1877257N22268 1877 27 NA NA NOT_NAMED 1877-09-21 00:00:00 TS 31.0636 -82.0000 40 hurdat_atl main 0 0 O____________O hurdat_atl AL021877 31.2000 -81.1000 TS 40 0 30.7000 -84.4000 TD 20 11 83
1877257N22268 1877 27 NA NA NOT_NAMED 1877-09-21 03:00:00 TS 31.1459 -81.3155 main 9 9 P____________P AL021877 31.2567 -80.5575 TS 40 0 30.7025 -84.3475 TD 20 13 83
1877257N22268 1877 27 NA NA NOT_NAMED 1877-09-21 06:00:00 TS 31.2333 -80.4778 40 hurdat_atl main 76 76 O____________O hurdat_atl AL021877 31.3000 -80.0000 TS 40 0 30.7000 -84.3000 TD 20 17 85
1877257N22268 1877 27 NA NA NOT_NAMED 1877-09-21 09:00:00 TS 31.2919 -79.3519 main 155 155 P_____________ AL021877 31.2919 -79.3519 TS 40 0 TD 16 88
1877257N22268 1877 27 NA NA NOT_NAMED 1877-09-21 12:00:00 TS 31.3000 -78.6000 40 hurdat_atl main 195 195 O_____________ hurdat_atl AL021877 31.3000 -78.6000 TS 40 0 14 86
1877257N22268 1877 27 NA NA NOT_NAMED 1877-09-21 15:00:00 TS 31.3791 -77.7334 main 239 239 P_____________ AL021877 31.3791 -77.7334 TS 40 0 15 83
1877257N22268 1877 27 NA NA NOT_NAMED 1877-09-21 18:00:00 TS 31.5000 -76.8000 40 hurdat_atl main 290 O_____________ hurdat_atl AL021877 31.5000 -76.8000 TS 40 0 16 81

IBTrACS Databaseについて

本データベースは、米国NOAAが公開する1842年以降の世界の熱帯低気圧のベストトラックデータアーカイブInternational Best Track Archive for Climate Stewardship (IBTrACS)を、ウェブで閲覧しやすい形式に変換したものです。

最終更新日:2021-10-08